createdAt,value
2023-03-03T00:01:11.434Z,111.30
2023-03-03T00:04:33.181Z,104.80
2023-03-03T00:07:12.843Z,104.70
2023-03-03T00:09:45.325Z,111.70
2023-03-03T00:12:31.488Z,122.60
2023-03-03T00:19:23.343Z,109.60
2023-03-03T00:26:56.725Z,114.70
2023-03-03T00:52:01.889Z,102.40
2023-03-03T00:54:34.261Z,101.60
2023-03-03T00:57:06.752Z,100.50
2023-03-03T00:59:46.107Z,94.30
2023-03-03T01:02:18.789Z,93.00
2023-03-03T01:04:58.263Z,106.20
2023-03-03T01:07:30.718Z,102.20
2023-03-03T01:10:11.826Z,103.80
2023-03-03T01:12:58.587Z,106.10
2023-03-03T01:15:45.304Z,103.20
2023-03-03T01:22:50.007Z,109.70
2023-03-03T01:25:22.540Z,118.70
2023-03-03T01:32:27.374Z,111.80
2023-03-03T01:42:30.836Z,98.70
2023-03-03T01:50:34.625Z,101.30
2023-03-03T01:57:40.613Z,111.40
2023-03-03T02:09:28.284Z,72.90
2023-03-03T02:16:12.514Z,67.40
2023-03-03T02:18:45.509Z,70.30
2023-03-03T02:30:52.743Z,65.40
2023-03-03T02:33:46.782Z,66.60
2023-03-03T02:37:10.899Z,64.10
2023-03-03T02:40:48.749Z,59.10
2023-03-03T02:52:22.157Z,81.20
2023-03-03T02:59:45.120Z,56.20
2023-03-03T03:02:47.101Z,69.30
2023-03-03T03:07:11.913Z,56.20
2023-03-03T03:09:55.017Z,57.70
2023-03-03T03:12:27.647Z,48.30
2023-03-03T03:15:10.132Z,51.30
2023-03-03T03:18:32.246Z,56.60
2023-03-03T03:21:51.869Z,47.70
2023-03-03T03:29:57.458Z,78.50
2023-03-03T03:32:34.814Z,46.10
2023-03-03T03:35:08.440Z,43.10
2023-03-03T03:42:10.465Z,43.10
2023-03-03T03:44:43.815Z,43.60
2023-03-03T03:51:52.314Z,58.30
2023-03-03T03:55:08.939Z,46.30
2023-03-03T04:02:28.464Z,45.90
2023-03-03T04:09:37.326Z,46.50
2023-03-03T04:17:01.323Z,47.20
2023-03-03T04:19:33.939Z,48.80
2023-03-03T04:22:48.876Z,46.90
2023-03-03T04:25:30.170Z,57.50
2023-03-03T04:28:05.498Z,59.20
2023-03-03T04:31:34.309Z,58.60
2023-03-03T04:34:07.407Z,59.30
2023-03-03T04:36:47.295Z,57.60
2023-03-03T04:44:36.078Z,50.30
2023-03-03T04:47:15.245Z,54.20
2023-03-03T04:50:16.641Z,54.60
2023-03-03T04:58:27.274Z,57.40
2023-03-03T05:01:25.222Z,49.70
2023-03-03T05:04:09.741Z,47.10
2023-03-03T05:11:34.880Z,40.70
2023-03-03T05:15:12.647Z,35.20
2023-03-03T05:17:53.604Z,51.40
2023-03-03T05:21:14.959Z,45.50
2023-03-03T05:23:49.883Z,42.70
2023-03-03T05:26:22.376Z,38.10
2023-03-03T05:28:57.921Z,38.40
2023-03-03T05:36:32.728Z,40.80
2023-03-03T05:39:05.520Z,42.90
2023-03-03T05:41:44.355Z,47.80
2023-03-03T05:49:17.738Z,55.70
2023-03-03T05:51:56.427Z,45.10
2023-03-03T05:54:29.000Z,56.50
2023-03-03T05:57:38.241Z,61.70
2023-03-03T06:00:36.787Z,61.60
2023-03-03T06:04:01.113Z,50.60
2023-03-03T06:07:24.981Z,40.30
2023-03-03T06:10:56.207Z,51.10
2023-03-03T06:13:35.288Z,58.70
2023-03-03T06:16:41.701Z,53.80
2023-03-03T06:19:17.196Z,54.50
2023-03-03T06:22:42.395Z,52.20
2023-03-03T06:29:42.318Z,54.70
2023-03-03T06:32:15.471Z,65.40
2023-03-03T06:38:59.729Z,41.80
2023-03-03T06:54:31.239Z,47.80
2023-03-03T06:57:35.273Z,46.00
2023-03-03T07:00:34.563Z,38.30
2023-03-03T07:07:58.953Z,34.00
2023-03-03T07:10:32.495Z,33.90
2023-03-03T07:13:19.267Z,33.00
2023-03-03T07:15:53.692Z,32.70
2023-03-03T07:19:19.112Z,29.50
2023-03-03T07:21:54.148Z,33.40
2023-03-03T07:37:44.817Z,46.30
2023-03-03T07:41:40.934Z,33.90
2023-03-03T07:48:41.925Z,30.70
2023-03-03T07:51:45.466Z,35.40
2023-03-03T07:58:57.363Z,29.50
2023-03-03T08:11:20.633Z,25.30
2023-03-03T08:13:52.874Z,30.20
2023-03-03T08:17:05.653Z,25.60
2023-03-03T08:19:37.992Z,30.60
2023-03-03T08:22:57.671Z,30.00
2023-03-03T08:30:34.493Z,29.60
2023-03-03T08:33:30.656Z,52.20
2023-03-03T08:36:03.232Z,49.10
2023-03-03T08:38:46.682Z,31.30
2023-03-03T08:41:19.391Z,35.00
2023-03-03T08:43:52.144Z,28.00
2023-03-03T08:46:50.812Z,31.80
2023-03-03T08:49:54.552Z,30.80
2023-03-03T08:52:35.374Z,52.10
2023-03-03T08:55:37.662Z,43.50
2023-03-03T08:58:10.192Z,37.50
2023-03-03T09:00:42.660Z,50.00
2023-03-03T09:07:22.152Z,46.90
2023-03-03T09:14:15.263Z,31.40
2023-03-03T09:25:42.347Z,29.50
2023-03-03T09:32:50.122Z,32.60
2023-03-03T09:35:42.504Z,33.00
2023-03-03T09:52:00.777Z,29.30
2023-03-03T10:03:52.813Z,25.60
2023-03-03T10:07:37.554Z,25.70
2023-03-03T10:11:08.952Z,28.40
2023-03-03T10:31:05.552Z,62.00
2023-03-03T10:42:17.779Z,28.20
2023-03-03T11:02:42.801Z,37.30
2023-03-03T11:09:55.310Z,36.70
2023-03-03T11:12:41.367Z,32.40
2023-03-03T11:15:57.609Z,23.30
2023-03-03T11:29:04.827Z,17.90
2023-03-03T11:49:29.459Z,24.80
2023-03-03T11:56:17.593Z,19.40
2023-03-03T12:16:56.656Z,22.90
2023-03-03T12:39:45.884Z,41.90
2023-03-03T13:19:16.158Z,25.40
2023-03-03T13:26:24.795Z,27.10
2023-03-03T13:34:07.104Z,25.40
2023-03-03T13:36:54.143Z,23.30
2023-03-03T13:48:53.115Z,19.20
2023-03-03T13:51:45.431Z,19.30
2023-03-03T13:59:19.081Z,18.50
2023-03-03T14:23:20.187Z,25.80
2023-03-03T14:26:47.570Z,22.30
2023-03-03T14:29:34.067Z,21.40
2023-03-03T14:32:43.099Z,24.80
2023-03-03T14:35:22.119Z,19.10
2023-03-03T14:38:02.338Z,91.70
2023-03-03T14:40:44.038Z,128.10
2023-03-03T14:43:30.685Z,113.50
2023-03-03T14:46:42.236Z,129.70
2023-03-03T14:49:32.761Z,131.30
2023-03-03T14:54:47.477Z,75.90
2023-03-03T14:57:21.365Z,34.80
2023-03-03T15:00:03.186Z,70.60
2023-03-03T15:02:38.931Z,135.40
2023-03-03T15:05:24.838Z,55.80
2023-03-03T15:07:59.347Z,46.80
2023-03-03T15:14:43.996Z,29.10
2023-03-03T15:28:51.792Z,50.50
2023-03-03T15:32:07.628Z,31.70
2023-03-03T15:34:45.878Z,33.60
2023-03-03T15:37:43.695Z,73.30
2023-03-03T15:40:27.252Z,84.20
2023-03-03T15:43:10.677Z,74.30
2023-03-03T15:45:52.745Z,50.20
2023-03-03T15:48:47.236Z,64.50
2023-03-03T15:51:32.533Z,68.00
2023-03-03T15:54:29.774Z,81.90
2023-03-03T15:57:06.294Z,58.60
2023-03-03T16:00:04.157Z,93.30
2023-03-03T16:02:52.026Z,95.30
2023-03-03T16:05:46.000Z,52.80
2023-03-03T16:08:24.526Z,90.70
2023-03-03T16:19:34.635Z,42.50
2023-03-03T16:22:42.243Z,68.40
2023-03-03T16:25:29.471Z,48.40
2023-03-03T16:28:07.659Z,78.30
2023-03-03T16:30:48.284Z,89.00
2023-03-03T16:36:11.335Z,139.60
2023-03-03T16:38:46.780Z,101.60
2023-03-03T16:41:24.914Z,72.50
2023-03-03T16:44:13.642Z,106.40
2023-03-03T16:46:52.194Z,73.70
2023-03-03T16:49:30.835Z,64.30
2023-03-03T16:52:09.318Z,72.70
2023-03-03T16:54:54.536Z,68.00
2023-03-03T16:57:35.715Z,65.70
2023-03-03T17:00:13.983Z,37.20
2023-03-03T17:03:10.560Z,23.40
2023-03-03T17:05:51.460Z,24.70
2023-03-03T17:08:42.946Z,40.60
2023-03-03T17:11:35.080Z,34.20
2023-03-03T17:14:25.362Z,39.00
2023-03-03T17:17:01.581Z,30.20
2023-03-03T17:19:58.674Z,36.30
2023-03-03T17:22:42.739Z,31.90
2023-03-03T17:25:23.072Z,23.60
2023-03-03T17:28:09.767Z,75.40
2023-03-03T17:30:49.837Z,63.30
2023-03-03T17:33:55.082Z,58.40
2023-03-03T17:36:45.594Z,43.70
2023-03-03T17:39:42.571Z,39.30
2023-03-03T17:42:24.633Z,32.20
2023-03-03T17:45:05.884Z,40.00
2023-03-03T17:47:49.033Z,30.30
2023-03-03T17:50:53.229Z,28.00
2023-03-03T17:53:44.553Z,29.40
2023-03-03T17:56:22.663Z,31.10
2023-03-03T17:59:27.457Z,36.10
2023-03-03T18:02:30.512Z,34.10
2023-03-03T18:05:30.108Z,33.80
2023-03-03T18:08:20.934Z,29.00
2023-03-03T18:11:24.779Z,40.90
2023-03-03T18:14:37.054Z,51.00
2023-03-03T18:17:42.496Z,32.20
2023-03-03T18:20:43.116Z,36.40
2023-03-03T18:26:37.223Z,26.10
2023-03-03T18:29:21.857Z,31.00
2023-03-03T18:32:06.267Z,40.80
2023-03-03T18:34:41.224Z,50.30
2023-03-03T18:37:40.486Z,63.40
2023-03-03T18:40:35.912Z,71.00
2023-03-03T18:43:49.544Z,50.00
2023-03-03T18:46:54.836Z,39.30
2023-03-03T18:50:06.759Z,25.50
2023-03-03T18:52:40.356Z,31.60
2023-03-03T18:55:27.841Z,35.20
2023-03-03T18:58:34.102Z,36.30
2023-03-03T19:01:43.026Z,32.50
2023-03-03T19:04:27.043Z,36.20
2023-03-03T19:07:27.686Z,38.00
2023-03-03T19:12:57.915Z,45.80
2023-03-03T19:18:23.894Z,270.60
2023-03-03T19:21:11.830Z,154.40
2023-03-03T19:24:01.005Z,176.90
2023-03-03T19:27:11.735Z,389.50
2023-03-03T19:32:47.491Z,198.00
2023-03-03T19:35:29.877Z,83.00
2023-03-03T19:38:21.312Z,214.40
2023-03-03T19:41:27.883Z,57.60
2023-03-03T19:44:08.981Z,46.60
2023-03-03T19:46:56.432Z,38.70
2023-03-03T19:49:56.056Z,49.40
2023-03-03T19:52:44.270Z,50.30
2023-03-03T19:55:34.112Z,39.20
2023-03-03T19:58:29.475Z,44.90
2023-03-03T20:01:15.815Z,47.20
2023-03-03T20:07:58.576Z,49.80
2023-03-03T20:33:54.028Z,34.40
2023-03-03T20:50:30.551Z,45.00
2023-03-03T20:53:45.221Z,35.60
2023-03-03T21:12:35.653Z,32.40
2023-03-03T21:24:19.858Z,31.20
2023-03-03T21:36:02.291Z,30.80
2023-03-03T21:47:22.943Z,32.60
2023-03-03T21:50:46.666Z,26.60
2023-03-03T21:58:57.156Z,24.60
2023-03-03T22:01:29.519Z,27.30
2023-03-03T22:04:01.937Z,29.90
2023-03-03T22:07:28.743Z,29.10
2023-03-03T22:10:03.319Z,30.50
2023-03-03T22:18:05.456Z,33.20
2023-03-03T22:21:33.111Z,31.60
2023-03-03T22:28:55.775Z,30.00
2023-03-03T22:32:12.350Z,30.80
2023-03-03T22:35:18.583Z,32.20
2023-03-03T22:37:51.040Z,32.20
2023-03-03T22:40:23.474Z,30.80
2023-03-03T22:43:02.669Z,31.10
2023-03-03T22:45:35.120Z,30.70
2023-03-03T22:48:14.089Z,34.00
2023-03-03T22:50:47.604Z,34.60
2023-03-03T22:53:47.023Z,31.40
2023-03-03T22:56:19.350Z,31.80
2023-03-03T23:09:01.333Z,25.20
2023-03-03T23:15:24.953Z,33.10
2023-03-03T23:18:23.555Z,28.70
2023-03-03T23:21:02.791Z,27.90
2023-03-03T23:23:35.303Z,26.70
2023-03-03T23:26:43.784Z,26.70
2023-03-03T23:29:59.112Z,26.20
2023-03-03T23:33:03.744Z,30.20
2023-03-03T23:44:58.758Z,33.80
2023-03-03T23:47:31.659Z,50.90
2023-03-03T23:50:13.955Z,35.50
2023-03-03T23:53:36.638Z,36.20
2023-03-03T23:56:20.243Z,33.10
2023-03-03T23:59:18.691Z,31.90
